Pagina principale
METAR-TAF:

METAR-TAF

Aeroporti :

Alderney,

latitudine: 49-43N, longitudine: 002-12W, altezza: 71 m

Osservazione

Il bollettino è stato emesso 2 ore e 2 minuti fa, alle 17:20 UTC
Vento 13 kt da ovest
Temperature 14°C
Umidità 88%
Pressione 1017 hPa
Visibilità 10 km o più
Poco nuvoloso ad un'altezza di 1000 ft

METAR: EGJA 201720Z 26013KT 9999 FEW010 14/12 Q1017

Ora: 20:22 (19:22 UTC)

Previsione

Il bollettino è stato emesso 2 ore e 28 minuti fa, alle 16:54 UTC
Previsione valida dal 20 alle 18 UTC al 21 alle 03 UTC
Vento 14 kt da ovest
Visibilità 10 km o più
Poco nuvoloso ad un'altezza di 1000 ft

TAF: EGJA 201654Z 2018/2103 26014KT 9999 FEW010

Osservazioni e previsioni meteorologiche di più di 4000 aeroporti (messaggi METAR e TAF).

Le stazioni disponibili sono rappresentate dai dischi gialli e rossi sulla carta.

Puntare il mouse per vedere il nome della stazione.

Clicca sopra per visualizzare le osservazioni e previsioni meteorologiche.

Per cambiare la mappa : fare clic sui pulsanti verdi con una croce nera per ingrandire, il pulsante verde con un trattino per diminuire, o sulla freccia verde per le mappe adiacenti.


METAR-TAF: